sensor_id;sensor_type;location;lat;lon;timestamp;P1;durP1;ratioP1;P2;durP2;ratioP2
61960;SDS011;47923;42.506;24.192;2022-09-27T00:01:58;10.57;;;8.02;;
61960;SDS011;47923;42.506;24.192;2022-09-27T00:04:23;12.70;;;9.75;;
61960;SDS011;47923;42.506;24.192;2022-09-27T00:06:48;12.00;;;8.75;;
61960;SDS011;47923;42.506;24.192;2022-09-27T00:09:14;11.07;;;8.63;;
61960;SDS011;47923;42.506;24.192;2022-09-27T00:11:40;13.57;;;9.10;;
61960;SDS011;47923;42.506;24.192;2022-09-27T00:14:07;12.40;;;8.18;;
61960;SDS011;47923;42.506;24.192;2022-09-27T00:16:34;10.77;;;7.60;;
61960;SDS011;47923;42.506;24.192;2022-09-27T00:19:03;12.38;;;8.00;;
61960;SDS011;47923;42.506;24.192;2022-09-27T00:21:31;13.57;;;7.35;;
61960;SDS011;47923;42.506;24.192;2022-09-27T00:23:57;9.35;;;7.03;;
61960;SDS011;47923;42.506;24.192;2022-09-27T00:26:23;18.67;;;14.65;;
61960;SDS011;47923;42.506;24.192;2022-09-27T00:28:49;14.50;;;12.40;;
61960;SDS011;47923;42.506;24.192;2022-09-27T00:31:19;17.10;;;12.57;;
61960;SDS011;47923;42.506;24.192;2022-09-27T00:33:50;12.07;;;9.00;;
61960;SDS011;47923;42.506;24.192;2022-09-27T00:36:17;12.73;;;8.80;;
61960;SDS011;47923;42.506;24.192;2022-09-27T00:38:44;12.93;;;8.95;;
61960;SDS011;47923;42.506;24.192;2022-09-27T00:41:14;12.27;;;7.63;;
61960;SDS011;47923;42.506;24.192;2022-09-27T00:43:48;10.07;;;7.57;;
61960;SDS011;47923;42.506;24.192;2022-09-27T00:49:18;10.75;;;7.50;;
61960;SDS011;47923;42.506;24.192;2022-09-27T00:51:58;11.07;;;8.00;;
61960;SDS011;47923;42.506;24.192;2022-09-27T00:54:56;10.75;;;7.55;;
61960;SDS011;47923;42.506;24.192;2022-09-27T00:57:26;14.82;;;7.95;;
61960;SDS011;47923;42.506;24.192;2022-09-27T01:00:26;10.40;;;7.70;;
61960;SDS011;47923;42.506;24.192;2022-09-27T01:02:46;12.70;;;9.90;;
61960;SDS011;47923;42.506;24.192;2022-09-27T01:05:15;12.77;;;9.30;;
61960;SDS011;47923;42.506;24.192;2022-09-27T01:07:44;12.20;;;8.73;;
61960;SDS011;47923;42.506;24.192;2022-09-27T01:10:09;14.85;;;10.82;;
61960;SDS011;47923;42.506;24.192;2022-09-27T01:15:27;13.43;;;10.52;;
61960;SDS011;47923;42.506;24.192;2022-09-27T01:40:25;15.68;;;13.23;;
61960;SDS011;47923;42.506;24.192;2022-09-27T01:43:20;24.60;;;20.23;;
61960;SDS011;47923;42.506;24.192;2022-09-27T01:45:53;20.73;;;16.20;;
61960;SDS011;47923;42.506;24.192;2022-09-27T01:48:23;16.63;;;13.95;;
61960;SDS011;47923;42.506;24.192;2022-09-27T01:51:07;15.73;;;11.80;;
61960;SDS011;47923;42.506;24.192;2022-09-27T01:56:45;14.52;;;11.48;;
61960;SDS011;47923;42.506;24.192;2022-09-27T02:01:33;15.05;;;11.48;;
61960;SDS011;47923;42.506;24.192;2022-09-27T02:04:02;13.68;;;10.18;;
61960;SDS011;47923;42.506;24.192;2022-09-27T02:06:34;13.00;;;8.40;;
61960;SDS011;47923;42.506;24.192;2022-09-27T02:09:15;11.93;;;8.65;;
61960;SDS011;47923;42.506;24.192;2022-09-27T02:11:44;12.38;;;8.68;;
61960;SDS011;47923;42.506;24.192;2022-09-27T02:16:51;14.18;;;10.52;;
61960;SDS011;47923;42.506;24.192;2022-09-27T02:22:15;17.95;;;15.57;;
61960;SDS011;47923;42.506;24.192;2022-09-27T02:24:45;15.15;;;12.40;;
61960;SDS011;47923;42.506;24.192;2022-09-27T02:27:21;15.55;;;13.23;;
61960;SDS011;47923;42.506;24.192;2022-09-27T02:30:04;14.63;;;12.43;;
61960;SDS011;47923;42.506;24.192;2022-09-27T02:32:33;15.85;;;12.85;;
61960;SDS011;47923;42.506;24.192;2022-09-27T02:35:01;16.23;;;13.00;;
61960;SDS011;47923;42.506;24.192;2022-09-27T02:37:31;16.63;;;13.02;;
61960;SDS011;47923;42.506;24.192;2022-09-27T02:39:58;13.40;;;11.35;;
61960;SDS011;47923;42.506;24.192;2022-09-27T02:42:24;12.88;;;9.90;;
61960;SDS011;47923;42.506;24.192;2022-09-27T02:44:51;13.02;;;11.60;;
61960;SDS011;47923;42.506;24.192;2022-09-27T02:50:29;15.95;;;12.98;;
61960;SDS011;47923;42.506;24.192;2022-09-27T02:59:14;16.25;;;13.43;;
61960;SDS011;47923;42.506;24.192;2022-09-27T03:04:28;13.55;;;11.10;;
61960;SDS011;47923;42.506;24.192;2022-09-27T03:07:01;19.08;;;16.98;;
61960;SDS011;47923;42.506;24.192;2022-09-27T03:09:28;18.58;;;16.60;;
61960;SDS011;47923;42.506;24.192;2022-09-27T03:12:03;22.33;;;19.15;;
61960;SDS011;47923;42.506;24.192;2022-09-27T03:14:29;20.23;;;17.65;;
61960;SDS011;47923;42.506;24.192;2022-09-27T03:16:54;18.15;;;16.17;;
61960;SDS011;47923;42.506;24.192;2022-09-27T03:19:20;17.45;;;14.30;;
61960;SDS011;47923;42.506;24.192;2022-09-27T03:21:46;17.58;;;13.73;;
61960;SDS011;47923;42.506;24.192;2022-09-27T03:24:11;14.90;;;12.70;;
61960;SDS011;47923;42.506;24.192;2022-09-27T03:26:36;14.13;;;12.20;;
61960;SDS011;47923;42.506;24.192;2022-09-27T03:29:02;14.73;;;12.43;;
61960;SDS011;47923;42.506;24.192;2022-09-27T03:31:27;18.35;;;13.80;;
61960;SDS011;47923;42.506;24.192;2022-09-27T03:33:54;15.18;;;12.57;;
61960;SDS011;47923;42.506;24.192;2022-09-27T03:36:21;14.52;;;11.55;;
61960;SDS011;47923;42.506;24.192;2022-09-27T03:38:54;14.23;;;11.50;;
61960;SDS011;47923;42.506;24.192;2022-09-27T03:41:20;15.18;;;12.20;;
61960;SDS011;47923;42.506;24.192;2022-09-27T03:43:45;15.35;;;12.70;;
61960;SDS011;47923;42.506;24.192;2022-09-27T03:46:11;12.98;;;10.73;;
61960;SDS011;47923;42.506;24.192;2022-09-27T03:48:36;13.32;;;11.63;;
61960;SDS011;47923;42.506;24.192;2022-09-27T03:51:02;11.45;;;10.05;;
61960;SDS011;47923;42.506;24.192;2022-09-27T03:53:28;13.15;;;10.13;;
61960;SDS011;47923;42.506;24.192;2022-09-27T03:55:54;12.43;;;10.07;;
61960;SDS011;47923;42.506;24.192;2022-09-27T03:58:20;12.95;;;10.52;;
61960;SDS011;47923;42.506;24.192;2022-09-27T04:00:45;12.43;;;9.70;;
61960;SDS011;47923;42.506;24.192;2022-09-27T04:03:11;18.33;;;14.27;;
61960;SDS011;47923;42.506;24.192;2022-09-27T04:05:37;14.65;;;12.23;;
61960;SDS011;47923;42.506;24.192;2022-09-27T04:08:02;15.57;;;12.80;;
61960;SDS011;47923;42.506;24.192;2022-09-27T04:10:30;14.88;;;12.32;;
61960;SDS011;47923;42.506;24.192;2022-09-27T04:12:55;14.73;;;12.68;;
61960;SDS011;47923;42.506;24.192;2022-09-27T04:15:21;17.02;;;13.82;;
61960;SDS011;47923;42.506;24.192;2022-09-27T04:17:47;13.85;;;11.85;;
61960;SDS011;47923;42.506;24.192;2022-09-27T04:20:15;14.98;;;11.73;;
61960;SDS011;47923;42.506;24.192;2022-09-27T04:22:42;14.30;;;11.63;;
61960;SDS011;47923;42.506;24.192;2022-09-27T04:25:09;11.77;;;9.35;;
61960;SDS011;47923;42.506;24.192;2022-09-27T04:27:35;15.07;;;11.60;;
61960;SDS011;47923;42.506;24.192;2022-09-27T04:30:02;15.05;;;11.13;;
61960;SDS011;47923;42.506;24.192;2022-09-27T04:32:28;13.60;;;11.77;;
61960;SDS011;47923;42.506;24.192;2022-09-27T04:34:54;18.42;;;11.63;;
61960;SDS011;47923;42.506;24.192;2022-09-27T04:37:37;13.45;;;10.57;;
61960;SDS011;47923;42.506;24.192;2022-09-27T04:40:03;12.55;;;10.43;;
61960;SDS011;47923;42.506;24.192;2022-09-27T04:42:29;12.75;;;10.10;;
61960;SDS011;47923;42.506;24.192;2022-09-27T04:44:54;17.00;;;12.70;;
61960;SDS011;47923;42.506;24.192;2022-09-27T04:47:20;14.48;;;11.65;;
61960;SDS011;47923;42.506;24.192;2022-09-27T04:49:46;12.77;;;10.38;;
61960;SDS011;47923;42.506;24.192;2022-09-27T04:52:12;15.00;;;10.35;;
61960;SDS011;47923;42.506;24.192;2022-09-27T04:54:39;12.60;;;10.48;;
61960;SDS011;47923;42.506;24.192;2022-09-27T04:57:05;13.82;;;10.15;;
61960;SDS011;47923;42.506;24.192;2022-09-27T04:59:31;14.23;;;11.05;;
61960;SDS011;47923;42.506;24.192;2022-09-27T05:01:57;16.83;;;12.25;;
61960;SDS011;47923;42.506;24.192;2022-09-27T05:04:25;17.08;;;12.95;;
61960;SDS011;47923;42.506;24.192;2022-09-27T05:06:51;15.48;;;11.40;;
61960;SDS011;47923;42.506;24.192;2022-09-27T05:09:16;12.13;;;9.48;;
61960;SDS011;47923;42.506;24.192;2022-09-27T05:11:42;13.40;;;10.02;;
61960;SDS011;47923;42.506;24.192;2022-09-27T05:14:07;15.82;;;11.13;;
61960;SDS011;47923;42.506;24.192;2022-09-27T05:16:33;15.48;;;10.20;;
61960;SDS011;47923;42.506;24.192;2022-09-27T05:19:00;15.82;;;11.15;;
61960;SDS011;47923;42.506;24.192;2022-09-27T05:21:26;15.48;;;11.63;;
61960;SDS011;47923;42.506;24.192;2022-09-27T05:23:52;13.88;;;11.65;;
61960;SDS011;47923;42.506;24.192;2022-09-27T05:26:18;14.13;;;12.57;;
61960;SDS011;47923;42.506;24.192;2022-09-27T05:28:44;14.23;;;11.90;;
61960;SDS011;47923;42.506;24.192;2022-09-27T05:31:11;14.68;;;11.27;;
61960;SDS011;47923;42.506;24.192;2022-09-27T05:33:37;14.20;;;11.73;;
61960;SDS011;47923;42.506;24.192;2022-09-27T05:36:02;15.57;;;12.80;;
61960;SDS011;47923;42.506;24.192;2022-09-27T05:38:28;17.27;;;14.40;;
61960;SDS011;47923;42.506;24.192;2022-09-27T05:40:54;18.52;;;15.52;;
61960;SDS011;47923;42.506;24.192;2022-09-27T05:43:19;17.50;;;13.85;;
61960;SDS011;47923;42.506;24.192;2022-09-27T05:45:45;15.70;;;12.63;;
61960;SDS011;47923;42.506;24.192;2022-09-27T05:48:11;17.65;;;14.55;;
61960;SDS011;47923;42.506;24.192;2022-09-27T05:50:38;15.52;;;12.02;;
61960;SDS011;47923;42.506;24.192;2022-09-27T05:53:04;18.73;;;14.23;;
61960;SDS011;47923;42.506;24.192;2022-09-27T05:55:30;14.60;;;12.20;;
61960;SDS011;47923;42.506;24.192;2022-09-27T06:00:26;16.60;;;14.00;;
61960;SDS011;47923;42.506;24.192;2022-09-27T06:02:56;19.45;;;15.25;;
61960;SDS011;47923;42.506;24.192;2022-09-27T06:05:24;17.67;;;14.85;;
61960;SDS011;47923;42.506;24.192;2022-09-27T06:07:51;16.30;;;13.95;;
61960;SDS011;47923;42.506;24.192;2022-09-27T06:10:17;18.58;;;14.13;;
61960;SDS011;47923;42.506;24.192;2022-09-27T06:12:43;18.70;;;14.23;;
61960;SDS011;47923;42.506;24.192;2022-09-27T06:15:10;13.98;;;11.23;;
61960;SDS011;47923;42.506;24.192;2022-09-27T06:17:36;23.27;;;15.45;;
61960;SDS011;47923;42.506;24.192;2022-09-27T06:20:02;21.30;;;16.30;;
61960;SDS011;47923;42.506;24.192;2022-09-27T06:22:28;16.30;;;13.50;;
61960;SDS011;47923;42.506;24.192;2022-09-27T06:24:54;16.50;;;12.68;;
61960;SDS011;47923;42.506;24.192;2022-09-27T06:27:19;24.02;;;19.83;;
61960;SDS011;47923;42.506;24.192;2022-09-27T06:29:45;22.48;;;18.98;;
61960;SDS011;47923;42.506;24.192;2022-09-27T06:32:11;22.92;;;18.98;;
61960;SDS011;47923;42.506;24.192;2022-09-27T06:34:36;19.65;;;17.50;;
61960;SDS011;47923;42.506;24.192;2022-09-27T06:37:02;15.63;;;13.90;;
61960;SDS011;47923;42.506;24.192;2022-09-27T06:39:27;14.05;;;11.77;;
61960;SDS011;47923;42.506;24.192;2022-09-27T06:41:53;14.43;;;12.10;;
61960;SDS011;47923;42.506;24.192;2022-09-27T06:44:24;14.27;;;12.35;;
61960;SDS011;47923;42.506;24.192;2022-09-27T06:46:52;13.68;;;11.23;;
61960;SDS011;47923;42.506;24.192;2022-09-27T06:49:19;12.40;;;9.63;;
61960;SDS011;47923;42.506;24.192;2022-09-27T06:51:46;20.98;;;16.77;;
61960;SDS011;47923;42.506;24.192;2022-09-27T06:54:12;13.93;;;10.90;;
61960;SDS011;47923;42.506;24.192;2022-09-27T06:56:38;14.27;;;12.18;;
61960;SDS011;47923;42.506;24.192;2022-09-27T06:59:03;28.02;;;25.00;;
61960;SDS011;47923;42.506;24.192;2022-09-27T07:01:47;18.42;;;15.65;;
61960;SDS011;47923;42.506;24.192;2022-09-27T07:04:16;12.73;;;10.35;;
61960;SDS011;47923;42.506;24.192;2022-09-27T07:06:42;9.57;;;8.43;;
61960;SDS011;47923;42.506;24.192;2022-09-27T07:09:08;8.40;;;6.65;;
61960;SDS011;47923;42.506;24.192;2022-09-27T07:11:34;8.73;;;6.93;;
61960;SDS011;47923;42.506;24.192;2022-09-27T07:14:03;9.43;;;7.30;;
61960;SDS011;47923;42.506;24.192;2022-09-27T07:16:29;8.00;;;6.22;;
61960;SDS011;47923;42.506;24.192;2022-09-27T07:18:55;7.95;;;6.25;;
61960;SDS011;47923;42.506;24.192;2022-09-27T07:21:22;8.77;;;6.25;;
61960;SDS011;47923;42.506;24.192;2022-09-27T07:23:48;10.65;;;7.32;;
61960;SDS011;47923;42.506;24.192;2022-09-27T07:26:14;9.15;;;6.63;;
61960;SDS011;47923;42.506;24.192;2022-09-27T07:28:40;7.53;;;5.90;;
61960;SDS011;47923;42.506;24.192;2022-09-27T07:31:06;8.85;;;6.45;;
61960;SDS011;47923;42.506;24.192;2022-09-27T07:33:32;11.23;;;7.90;;
61960;SDS011;47923;42.506;24.192;2022-09-27T07:35:58;9.98;;;7.60;;
61960;SDS011;47923;42.506;24.192;2022-09-27T07:38:24;9.30;;;6.90;;
61960;SDS011;47923;42.506;24.192;2022-09-27T07:40:49;8.40;;;6.18;;
61960;SDS011;47923;42.506;24.192;2022-09-27T07:43:15;7.93;;;6.03;;
61960;SDS011;47923;42.506;24.192;2022-09-27T07:45:41;12.05;;;6.07;;
61960;SDS011;47923;42.506;24.192;2022-09-27T07:48:08;7.03;;;4.93;;
61960;SDS011;47923;42.506;24.192;2022-09-27T07:50:37;8.45;;;6.15;;
61960;SDS011;47923;42.506;24.192;2022-09-27T07:53:03;9.02;;;5.13;;
61960;SDS011;47923;42.506;24.192;2022-09-27T07:55:29;7.40;;;5.13;;
61960;SDS011;47923;42.506;24.192;2022-09-27T07:58:04;6.90;;;4.60;;
61960;SDS011;47923;42.506;24.192;2022-09-27T08:00:31;7.22;;;5.13;;
61960;SDS011;47923;42.506;24.192;2022-09-27T08:02:57;7.55;;;5.63;;
61960;SDS011;47923;42.506;24.192;2022-09-27T08:05:22;11.73;;;8.45;;
61960;SDS011;47923;42.506;24.192;2022-09-27T08:07:52;8.55;;;5.30;;
61960;SDS011;47923;42.506;24.192;2022-09-27T08:10:19;6.20;;;4.13;;
61960;SDS011;47923;42.506;24.192;2022-09-27T08:12:44;17.20;;;4.70;;
61960;SDS011;47923;42.506;24.192;2022-09-27T08:15:10;10.45;;;4.18;;
61960;SDS011;47923;42.506;24.192;2022-09-27T08:17:36;9.30;;;4.35;;
61960;SDS011;47923;42.506;24.192;2022-09-27T08:20:01;6.45;;;4.10;;
61960;SDS011;47923;42.506;24.192;2022-09-27T08:22:30;10.18;;;4.00;;
61960;SDS011;47923;42.506;24.192;2022-09-27T08:24:55;8.02;;;4.25;;
61960;SDS011;47923;42.506;24.192;2022-09-27T08:27:21;6.85;;;3.47;;
61960;SDS011;47923;42.506;24.192;2022-09-27T08:29:47;6.05;;;3.60;;
61960;SDS011;47923;42.506;24.192;2022-09-27T08:32:12;5.97;;;3.85;;
61960;SDS011;47923;42.506;24.192;2022-09-27T08:34:38;7.70;;;4.07;;
61960;SDS011;47923;42.506;24.192;2022-09-27T08:37:04;5.60;;;3.55;;
61960;SDS011;47923;42.506;24.192;2022-09-27T08:39:30;7.82;;;4.40;;
61960;SDS011;47923;42.506;24.192;2022-09-27T08:44:48;10.02;;;4.15;;
61960;SDS011;47923;42.506;24.192;2022-09-27T08:47:26;6.68;;;3.40;;
61960;SDS011;47923;42.506;24.192;2022-09-27T08:50:18;7.95;;;4.00;;
61960;SDS011;47923;42.506;24.192;2022-09-27T08:52:56;7.97;;;3.85;;
61960;SDS011;47923;42.506;24.192;2022-09-27T08:57:53;9.10;;;4.47;;
61960;SDS011;47923;42.506;24.192;2022-09-27T09:00:21;8.68;;;4.55;;
61960;SDS011;47923;42.506;24.192;2022-09-27T09:02:47;6.13;;;3.92;;
61960;SDS011;47923;42.506;24.192;2022-09-27T09:05:15;6.97;;;3.75;;
61960;SDS011;47923;42.506;24.192;2022-09-27T09:19:42;5.10;;;3.38;;
61960;SDS011;47923;42.506;24.192;2022-09-27T09:31:11;4.68;;;2.60;;
61960;SDS011;47923;42.506;24.192;2022-09-27T09:34:02;4.70;;;2.85;;
61960;SDS011;47923;42.506;24.192;2022-09-27T09:39:18;3.95;;;2.90;;
61960;SDS011;47923;42.506;24.192;2022-09-27T09:44:25;4.45;;;2.50;;
61960;SDS011;47923;42.506;24.192;2022-09-27T09:46:54;4.05;;;2.65;;
61960;SDS011;47923;42.506;24.192;2022-09-27T09:52:01;5.10;;;2.50;;
61960;SDS011;47923;42.506;24.192;2022-09-27T09:54:42;5.68;;;3.53;;
61960;SDS011;47923;42.506;24.192;2022-09-27T09:57:22;3.90;;;2.20;;
61960;SDS011;47923;42.506;24.192;2022-09-27T10:02:38;6.00;;;2.85;;
61960;SDS011;47923;42.506;24.192;2022-09-27T10:05:06;3.30;;;2.13;;
61960;SDS011;47923;42.506;24.192;2022-09-27T10:07:36;6.13;;;2.78;;
61960;SDS011;47923;42.506;24.192;2022-09-27T10:10:04;5.05;;;2.50;;
61960;SDS011;47923;42.506;24.192;2022-09-27T10:12:31;4.97;;;2.80;;
61960;SDS011;47923;42.506;24.192;2022-09-27T10:14:58;5.95;;;3.20;;
61960;SDS011;47923;42.506;24.192;2022-09-27T10:17:28;4.95;;;2.70;;
61960;SDS011;47923;42.506;24.192;2022-09-27T10:20:02;4.15;;;2.40;;
61960;SDS011;47923;42.506;24.192;2022-09-27T10:22:37;5.25;;;2.80;;
61960;SDS011;47923;42.506;24.192;2022-09-27T10:25:07;6.20;;;2.95;;
61960;SDS011;47923;42.506;24.192;2022-09-27T10:27:38;8.98;;;3.50;;
61960;SDS011;47923;42.506;24.192;2022-09-27T10:30:06;9.73;;;3.75;;
61960;SDS011;47923;42.506;24.192;2022-09-27T10:32:52;7.20;;;2.88;;
61960;SDS011;47923;42.506;24.192;2022-09-27T10:35:31;3.38;;;2.20;;
61960;SDS011;47923;42.506;24.192;2022-09-27T10:40:41;4.47;;;2.97;;
61960;SDS011;47923;42.506;24.192;2022-09-27T10:46:11;4.75;;;3.00;;
61960;SDS011;47923;42.506;24.192;2022-09-27T10:48:45;9.43;;;3.03;;
61960;SDS011;47923;42.506;24.192;2022-09-27T10:51:32;4.65;;;2.70;;
61960;SDS011;47923;42.506;24.192;2022-09-27T10:53:57;5.63;;;3.10;;
61960;SDS011;47923;42.506;24.192;2022-09-27T10:56:28;7.28;;;3.00;;
61960;SDS011;47923;42.506;24.192;2022-09-27T10:58:56;5.32;;;3.53;;
61960;SDS011;47923;42.506;24.192;2022-09-27T11:01:24;6.55;;;2.97;;
61960;SDS011;47923;42.506;24.192;2022-09-27T11:03:55;4.50;;;2.95;;
61960;SDS011;47923;42.506;24.192;2022-09-27T11:08:49;7.47;;;4.00;;
61960;SDS011;47923;42.506;24.192;2022-09-27T11:11:23;5.28;;;3.40;;
61960;SDS011;47923;42.506;24.192;2022-09-27T11:14:03;12.27;;;4.15;;
61960;SDS011;47923;42.506;24.192;2022-09-27T11:19:40;4.53;;;3.15;;
61960;SDS011;47923;42.506;24.192;2022-09-27T11:25:16;5.72;;;2.72;;
61960;SDS011;47923;42.506;24.192;2022-09-27T11:30:46;5.38;;;2.80;;
61960;SDS011;47923;42.506;24.192;2022-09-27T11:33:26;6.95;;;3.30;;
61960;SDS011;47923;42.506;24.192;2022-09-27T11:41:29;5.40;;;3.40;;
61960;SDS011;47923;42.506;24.192;2022-09-27T11:47:17;5.47;;;3.42;;
61960;SDS011;47923;42.506;24.192;2022-09-27T11:55:51;4.45;;;3.15;;
61960;SDS011;47923;42.506;24.192;2022-09-27T12:06:41;5.75;;;2.95;;
61960;SDS011;47923;42.506;24.192;2022-09-27T12:09:12;6.80;;;3.17;;
61960;SDS011;47923;42.506;24.192;2022-09-27T12:11:53;7.20;;;3.38;;
61960;SDS011;47923;42.506;24.192;2022-09-27T12:14:29;4.55;;;2.90;;
61960;SDS011;47923;42.506;24.192;2022-09-27T12:17:04;5.57;;;2.38;;
61960;SDS011;47923;42.506;24.192;2022-09-27T12:19:36;4.35;;;2.75;;
61960;SDS011;47923;42.506;24.192;2022-09-27T12:22:08;4.72;;;2.72;;
61960;SDS011;47923;42.506;24.192;2022-09-27T12:24:38;4.47;;;2.72;;
61960;SDS011;47923;42.506;24.192;2022-09-27T12:27:08;5.78;;;3.40;;
61960;SDS011;47923;42.506;24.192;2022-09-27T12:29:56;4.85;;;2.80;;
61960;SDS011;47923;42.506;24.192;2022-09-27T12:32:30;4.28;;;2.78;;
61960;SDS011;47923;42.506;24.192;2022-09-27T12:35:04;3.97;;;2.50;;
61960;SDS011;47923;42.506;24.192;2022-09-27T12:37:43;3.95;;;2.35;;
61960;SDS011;47923;42.506;24.192;2022-09-27T12:45:32;5.05;;;2.20;;
61960;SDS011;47923;42.506;24.192;2022-09-27T12:59:03;4.65;;;2.70;;
61960;SDS011;47923;42.506;24.192;2022-09-27T13:04:18;11.18;;;3.22;;
61960;SDS011;47923;42.506;24.192;2022-09-27T13:09:44;8.73;;;5.43;;
61960;SDS011;47923;42.506;24.192;2022-09-27T13:12:32;6.43;;;3.63;;
61960;SDS011;47923;42.506;24.192;2022-09-27T13:22:52;5.65;;;3.45;;
61960;SDS011;47923;42.506;24.192;2022-09-27T13:30:56;5.78;;;3.47;;
61960;SDS011;47923;42.506;24.192;2022-09-27T13:33:30;5.72;;;3.75;;
61960;SDS011;47923;42.506;24.192;2022-09-27T13:38:48;5.57;;;3.75;;
61960;SDS011;47923;42.506;24.192;2022-09-27T13:41:19;5.07;;;3.22;;
61960;SDS011;47923;42.506;24.192;2022-09-27T13:46:55;5.20;;;3.28;;
61960;SDS011;47923;42.506;24.192;2022-09-27T13:49:28;5.70;;;3.20;;
61960;SDS011;47923;42.506;24.192;2022-09-27T13:52:01;5.97;;;3.17;;
61960;SDS011;47923;42.506;24.192;2022-09-27T13:54:56;5.72;;;3.45;;
61960;SDS011;47923;42.506;24.192;2022-09-27T14:00:20;7.63;;;3.28;;
61960;SDS011;47923;42.506;24.192;2022-09-27T14:05:29;5.90;;;3.42;;
61960;SDS011;47923;42.506;24.192;2022-09-27T14:07:59;4.40;;;3.00;;
61960;SDS011;47923;42.506;24.192;2022-09-27T14:10:27;5.65;;;3.05;;
61960;SDS011;47923;42.506;24.192;2022-09-27T14:12:53;5.80;;;3.38;;
61960;SDS011;47923;42.506;24.192;2022-09-27T14:15:21;7.50;;;3.30;;
61960;SDS011;47923;42.506;24.192;2022-09-27T14:17:49;5.35;;;3.10;;
61960;SDS011;47923;42.506;24.192;2022-09-27T14:20:36;5.65;;;2.75;;
61960;SDS011;47923;42.506;24.192;2022-09-27T14:23:05;4.70;;;3.15;;
61960;SDS011;47923;42.506;24.192;2022-09-27T14:25:46;4.03;;;2.72;;
61960;SDS011;47923;42.506;24.192;2022-09-27T14:28:26;5.22;;;2.80;;
61960;SDS011;47923;42.506;24.192;2022-09-27T14:33:41;7.88;;;3.80;;
61960;SDS011;47923;42.506;24.192;2022-09-27T14:39:19;5.07;;;3.55;;
61960;SDS011;47923;42.506;24.192;2022-09-27T14:41:47;6.55;;;3.40;;
61960;SDS011;47923;42.506;24.192;2022-09-27T14:44:14;6.93;;;3.70;;
61960;SDS011;47923;42.506;24.192;2022-09-27T14:46:42;6.10;;;4.00;;
61960;SDS011;47923;42.506;24.192;2022-09-27T14:49:21;6.80;;;4.13;;
61960;SDS011;47923;42.506;24.192;2022-09-27T14:51:52;8.32;;;4.95;;
61960;SDS011;47923;42.506;24.192;2022-09-27T14:54:19;7.65;;;4.15;;
61960;SDS011;47923;42.506;24.192;2022-09-27T14:56:47;6.68;;;4.30;;
61960;SDS011;47923;42.506;24.192;2022-09-27T14:59:14;6.82;;;4.35;;
61960;SDS011;47923;42.506;24.192;2022-09-27T15:01:50;7.38;;;4.38;;
61960;SDS011;47923;42.506;24.192;2022-09-27T15:04:17;6.00;;;4.30;;
61960;SDS011;47923;42.506;24.192;2022-09-27T15:06:44;7.03;;;4.38;;
61960;SDS011;47923;42.506;24.192;2022-09-27T15:09:14;7.88;;;4.82;;
61960;SDS011;47923;42.506;24.192;2022-09-27T15:11:42;7.80;;;4.40;;
61960;SDS011;47923;42.506;24.192;2022-09-27T15:14:10;8.93;;;5.50;;
61960;SDS011;47923;42.506;24.192;2022-09-27T15:16:40;7.43;;;5.65;;
61960;SDS011;47923;42.506;24.192;2022-09-27T15:19:13;8.13;;;4.65;;
61960;SDS011;47923;42.506;24.192;2022-09-27T15:21:42;11.35;;;4.75;;
61960;SDS011;47923;42.506;24.192;2022-09-27T15:27:19;11.57;;;6.40;;
61960;SDS011;47923;42.506;24.192;2022-09-27T15:29:48;10.20;;;6.32;;
61960;SDS011;47923;42.506;24.192;2022-09-27T15:32:15;9.15;;;6.25;;
61960;SDS011;47923;42.506;24.192;2022-09-27T15:34:43;14.70;;;11.55;;
61960;SDS011;47923;42.506;24.192;2022-09-27T15:37:21;48.75;;;38.92;;
61960;SDS011;47923;42.506;24.192;2022-09-27T15:39:51;29.98;;;24.08;;
61960;SDS011;47923;42.506;24.192;2022-09-27T15:42:16;16.95;;;13.60;;
61960;SDS011;47923;42.506;24.192;2022-09-27T15:49:58;16.67;;;7.32;;
61960;SDS011;47923;42.506;24.192;2022-09-27T15:52:44;15.60;;;6.60;;
61960;SDS011;47923;42.506;24.192;2022-09-27T15:55:11;11.48;;;7.70;;
61960;SDS011;47923;42.506;24.192;2022-09-27T15:57:41;11.25;;;7.65;;
61960;SDS011;47923;42.506;24.192;2022-09-27T16:00:12;11.23;;;8.02;;
61960;SDS011;47923;42.506;24.192;2022-09-27T16:02:42;11.77;;;7.93;;
61960;SDS011;47923;42.506;24.192;2022-09-27T16:05:09;10.80;;;8.43;;
61960;SDS011;47923;42.506;24.192;2022-09-27T16:07:35;12.02;;;7.90;;
61960;SDS011;47923;42.506;24.192;2022-09-27T16:10:00;7.53;;;5.45;;
61960;SDS011;47923;42.506;24.192;2022-09-27T16:12:26;8.23;;;5.78;;
61960;SDS011;47923;42.506;24.192;2022-09-27T16:14:54;8.43;;;5.68;;
61960;SDS011;47923;42.506;24.192;2022-09-27T16:17:20;9.13;;;6.60;;
61960;SDS011;47923;42.506;24.192;2022-09-27T16:19:46;9.30;;;6.97;;
61960;SDS011;47923;42.506;24.192;2022-09-27T16:22:12;9.00;;;6.43;;
61960;SDS011;47923;42.506;24.192;2022-09-27T16:24:37;10.18;;;7.10;;
61960;SDS011;47923;42.506;24.192;2022-09-27T16:27:03;9.45;;;6.95;;
61960;SDS011;47923;42.506;24.192;2022-09-27T16:29:28;11.50;;;6.35;;
61960;SDS011;47923;42.506;24.192;2022-09-27T16:31:54;10.20;;;6.95;;
61960;SDS011;47923;42.506;24.192;2022-09-27T16:34:20;12.48;;;8.02;;
61960;SDS011;47923;42.506;24.192;2022-09-27T16:36:45;12.48;;;7.93;;
61960;SDS011;47923;42.506;24.192;2022-09-27T16:39:13;14.48;;;8.05;;
61960;SDS011;47923;42.506;24.192;2022-09-27T16:41:39;12.95;;;8.75;;
61960;SDS011;47923;42.506;24.192;2022-09-27T16:44:08;12.95;;;8.52;;
61960;SDS011;47923;42.506;24.192;2022-09-27T16:46:41;17.50;;;13.18;;
61960;SDS011;47923;42.506;24.192;2022-09-27T16:49:10;13.32;;;10.95;;
61960;SDS011;47923;42.506;24.192;2022-09-27T16:51:56;13.65;;;11.10;;
61960;SDS011;47923;42.506;24.192;2022-09-27T16:54:25;15.05;;;9.82;;
61960;SDS011;47923;42.506;24.192;2022-09-27T16:56:53;14.50;;;9.05;;
61960;SDS011;47923;42.506;24.192;2022-09-27T16:59:19;12.88;;;10.07;;
61960;SDS011;47923;42.506;24.192;2022-09-27T17:01:45;11.55;;;8.93;;
61960;SDS011;47923;42.506;24.192;2022-09-27T17:04:11;12.38;;;8.25;;
61960;SDS011;47923;42.506;24.192;2022-09-27T17:06:38;12.13;;;7.45;;
61960;SDS011;47923;42.506;24.192;2022-09-27T17:09:03;14.52;;;9.63;;
61960;SDS011;47923;42.506;24.192;2022-09-27T17:11:29;12.60;;;7.82;;
61960;SDS011;47923;42.506;24.192;2022-09-27T17:13:55;7.20;;;4.40;;
61960;SDS011;47923;42.506;24.192;2022-09-27T17:16:21;4.55;;;2.40;;
61960;SDS011;47923;42.506;24.192;2022-09-27T17:18:47;4.78;;;2.10;;
61960;SDS011;47923;42.506;24.192;2022-09-27T17:21:13;2.95;;;1.00;;
61960;SDS011;47923;42.506;24.192;2022-09-27T17:23:39;4.00;;;1.10;;
61960;SDS011;47923;42.506;24.192;2022-09-27T17:26:05;1.70;;;0.98;;
61960;SDS011;47923;42.506;24.192;2022-09-27T17:28:39;1.48;;;0.80;;
61960;SDS011;47923;42.506;24.192;2022-09-27T17:31:07;7.15;;;1.30;;
61960;SDS011;47923;42.506;24.192;2022-09-27T17:33:44;3.55;;;1.10;;
61960;SDS011;47923;42.506;24.192;2022-09-27T17:36:24;2.90;;;0.90;;
61960;SDS011;47923;42.506;24.192;2022-09-27T17:38:52;2.63;;;1.10;;
61960;SDS011;47923;42.506;24.192;2022-09-27T17:41:19;4.30;;;0.95;;
61960;SDS011;47923;42.506;24.192;2022-09-27T17:43:50;1.92;;;0.60;;
61960;SDS011;47923;42.506;24.192;2022-09-27T17:48:48;1.95;;;0.70;;
61960;SDS011;47923;42.506;24.192;2022-09-27T17:51:33;3.83;;;1.25;;